createdAt,value
2022-12-15T00:02:19.483Z,9.67
2022-12-15T00:05:05.844Z,9.47
2022-12-15T00:07:52.089Z,11.00
2022-12-15T00:10:37.350Z,10.80
2022-12-15T00:13:29.826Z,10.70
2022-12-15T00:16:15.988Z,9.80
2022-12-15T00:19:01.517Z,9.30
2022-12-15T00:21:47.820Z,9.80
2022-12-15T00:24:33.032Z,10.13
2022-12-15T00:27:18.565Z,9.10
2022-12-15T00:30:04.195Z,9.80
2022-12-15T00:32:51.828Z,10.53
2022-12-15T00:35:37.126Z,10.67
2022-12-15T00:38:29.514Z,9.27
2022-12-15T00:40:59.724Z,9.37
2022-12-15T00:43:28.262Z,9.43
2022-12-15T00:46:14.559Z,10.67
2022-12-15T00:48:41.964Z,9.20
2022-12-15T00:51:08.867Z,11.00
2022-12-15T00:53:56.579Z,10.17
2022-12-15T00:56:42.158Z,9.17
2022-12-15T00:59:27.666Z,9.50
2022-12-15T01:02:13.320Z,10.97
2022-12-15T01:04:58.767Z,9.83
2022-12-15T01:07:44.119Z,10.83
2022-12-15T01:10:35.037Z,8.53
2022-12-15T01:13:22.260Z,8.93
2022-12-15T01:16:10.383Z,9.07
2022-12-15T01:18:59.014Z,9.00
2022-12-15T01:21:25.896Z,9.40
2022-12-15T01:23:53.432Z,9.20
2022-12-15T01:26:20.670Z,9.60
2022-12-15T01:28:47.579Z,9.77
2022-12-15T01:31:15.030Z,9.83
2022-12-15T01:33:43.810Z,10.57
2022-12-15T01:36:11.997Z,9.43
2022-12-15T01:38:38.880Z,10.23
2022-12-15T01:41:09.480Z,9.63
2022-12-15T01:43:39.194Z,9.20
2022-12-15T01:46:09.168Z,9.03
2022-12-15T01:48:54.547Z,9.30
2022-12-15T01:51:28.876Z,9.23
2022-12-15T01:54:05.902Z,9.47
2022-12-15T01:56:37.989Z,9.03
2022-12-15T01:59:08.950Z,8.73
2022-12-15T02:01:35.955Z,10.03
2022-12-15T02:04:03.193Z,10.13
2022-12-15T02:06:30.252Z,9.30
2022-12-15T02:08:59.490Z,9.83
2022-12-15T02:11:42.942Z,9.53
2022-12-15T02:14:11.880Z,9.67
2022-12-15T02:16:58.451Z,9.57
2022-12-15T02:19:40.866Z,9.30
2022-12-15T02:22:37.759Z,9.70
2022-12-15T02:25:16.755Z,9.90
2022-12-15T02:27:56.776Z,10.07
2022-12-15T02:30:40.360Z,10.27
2022-12-15T02:33:07.183Z,10.43
2022-12-15T02:35:59.807Z,10.10
2022-12-15T02:38:32.714Z,10.00
2022-12-15T02:41:01.194Z,9.53
2022-12-15T02:43:30.539Z,10.57
2022-12-15T02:46:25.884Z,10.50
2022-12-15T02:49:12.394Z,10.80
2022-12-15T02:51:57.455Z,10.37
2022-12-15T02:55:14.895Z,10.70
2022-12-15T02:57:57.183Z,9.43
2022-12-15T03:00:24.297Z,11.23
2022-12-15T03:02:55.756Z,10.60
2022-12-15T03:05:24.793Z,10.30
2022-12-15T03:07:54.084Z,10.63
2022-12-15T03:10:26.261Z,11.43
2022-12-15T03:12:54.629Z,11.57
2022-12-15T03:15:21.651Z,11.23
2022-12-15T03:17:48.810Z,10.90
2022-12-15T03:20:16.104Z,9.77
2022-12-15T03:22:42.904Z,11.50
2022-12-15T03:25:09.682Z,11.40
2022-12-15T03:27:37.884Z,11.13
2022-12-15T03:30:05.670Z,11.60
2022-12-15T03:32:32.412Z,10.77
2022-12-15T03:34:59.248Z,11.07
2022-12-15T03:37:25.973Z,11.43
2022-12-15T03:39:52.754Z,11.60
2022-12-15T03:42:39.685Z,11.00
2022-12-15T03:45:06.893Z,11.03
2022-12-15T03:47:33.609Z,12.03
2022-12-15T03:50:00.396Z,11.90
2022-12-15T03:52:28.300Z,12.97
2022-12-15T03:54:57.374Z,12.03
2022-12-15T03:57:24.180Z,12.13
2022-12-15T03:59:50.903Z,12.87
2022-12-15T04:02:21.146Z,11.43
2022-12-15T04:04:48.924Z,12.23
2022-12-15T04:07:17.908Z,11.87
2022-12-15T04:09:44.882Z,12.77
2022-12-15T04:12:12.133Z,11.60
2022-12-15T04:14:42.646Z,12.23
2022-12-15T04:17:10.470Z,11.83
2022-12-15T04:19:56.231Z,12.03
2022-12-15T04:22:23.605Z,12.10
2022-12-15T04:25:09.351Z,12.17
2022-12-15T04:27:59.854Z,12.43
2022-12-15T04:30:49.065Z,12.70
2022-12-15T04:33:38.843Z,11.93
2022-12-15T04:36:26.350Z,12.03
2022-12-15T04:39:11.766Z,12.30
2022-12-15T04:41:57.491Z,12.17
2022-12-15T04:44:42.840Z,12.43
2022-12-15T04:47:28.575Z,11.33
2022-12-15T04:50:13.915Z,12.20
2022-12-15T04:52:59.586Z,11.90
2022-12-15T04:55:48.321Z,12.00
2022-12-15T04:58:33.783Z,11.63
2022-12-15T05:01:19.473Z,12.83
2022-12-15T05:04:05.043Z,11.67
2022-12-15T05:06:50.598Z,12.17
2022-12-15T05:09:35.764Z,12.33
2022-12-15T05:12:21.108Z,11.33
2022-12-15T05:15:06.698Z,11.57
2022-12-15T05:17:52.452Z,12.17
2022-12-15T05:20:37.884Z,12.50
2022-12-15T05:23:23.042Z,13.77
2022-12-15T05:26:08.579Z,11.80
2022-12-15T05:28:53.817Z,11.90
2022-12-15T05:31:39.254Z,12.70
2022-12-15T05:34:06.992Z,13.23
2022-12-15T05:36:33.889Z,12.83
2022-12-15T05:39:00.739Z,13.53
2022-12-15T05:41:27.447Z,12.87
2022-12-15T05:43:54.285Z,13.90
2022-12-15T05:46:21.318Z,13.10
2022-12-15T05:48:48.030Z,12.63
2022-12-15T05:51:15.143Z,12.57
2022-12-15T05:53:42.768Z,13.60
2022-12-15T05:56:12.279Z,12.00
2022-12-15T05:58:45.198Z,13.10
2022-12-15T06:01:15.585Z,12.63
2022-12-15T06:03:42.891Z,14.50
2022-12-15T06:06:11.239Z,13.57
2022-12-15T06:08:39.958Z,12.67
2022-12-15T06:11:07.106Z,13.53
2022-12-15T06:13:35.217Z,14.90
2022-12-15T06:16:07.544Z,13.00
2022-12-15T06:18:38.159Z,13.17
2022-12-15T06:21:07.902Z,12.60
2022-12-15T06:23:35.566Z,12.77
2022-12-15T06:26:11.068Z,13.00
2022-12-15T06:28:38.221Z,12.47
2022-12-15T06:31:06.953Z,13.37
2022-12-15T06:33:34.445Z,12.87
2022-12-15T06:36:07.052Z,14.03
2022-12-15T06:38:34.746Z,13.00
2022-12-15T06:41:03.587Z,12.30
2022-12-15T06:43:32.118Z,13.27
2022-12-15T06:46:00.088Z,13.80
2022-12-15T06:48:26.972Z,13.17
2022-12-15T06:50:54.463Z,13.27
2022-12-15T06:53:23.099Z,12.93
2022-12-15T06:55:50.376Z,14.13
2022-12-15T06:58:18.175Z,13.43
2022-12-15T07:00:46.526Z,13.67
2022-12-15T07:03:19.086Z,13.83
2022-12-15T07:05:46.767Z,13.00
2022-12-15T07:08:16.189Z,12.67
2022-12-15T07:10:44.310Z,13.73
2022-12-15T07:13:12.387Z,14.10
2022-12-15T07:15:40.499Z,13.47
2022-12-15T07:18:07.733Z,13.53
2022-12-15T07:20:34.475Z,14.03
2022-12-15T07:23:03.791Z,13.70
2022-12-15T07:25:30.499Z,14.77
2022-12-15T07:27:57.190Z,13.77
2022-12-15T07:30:24.100Z,13.17
2022-12-15T07:32:51.639Z,12.60
2022-12-15T07:35:21.894Z,14.40
2022-12-15T07:37:48.938Z,14.03
2022-12-15T07:40:15.668Z,14.67
2022-12-15T07:42:42.521Z,14.80
2022-12-15T07:45:09.710Z,14.30
2022-12-15T07:47:36.786Z,14.83
2022-12-15T07:50:04.955Z,14.73
2022-12-15T07:52:31.664Z,13.77
2022-12-15T07:54:58.552Z,14.27
2022-12-15T07:57:25.266Z,15.70
2022-12-15T07:59:52.107Z,14.40
2022-12-15T08:02:19.333Z,15.23
2022-12-15T08:04:46.250Z,17.33
2022-12-15T08:07:13.659Z,16.10
2022-12-15T08:09:45.495Z,15.20
2022-12-15T08:12:12.467Z,17.43
2022-12-15T08:14:39.788Z,15.47
2022-12-15T08:17:06.773Z,15.67
2022-12-15T08:19:33.476Z,16.20
2022-12-15T08:22:00.297Z,15.20
2022-12-15T08:24:27.047Z,15.80
2022-12-15T08:26:53.727Z,16.40
2022-12-15T08:32:10.072Z,15.47
2022-12-15T08:34:37.942Z,17.67
2022-12-15T08:37:07.118Z,16.30
2022-12-15T08:39:33.903Z,17.63
2022-12-15T08:42:00.658Z,17.67
2022-12-15T08:44:27.319Z,17.37
2022-12-15T08:46:54.059Z,17.13
2022-12-15T08:49:22.289Z,17.87
2022-12-15T08:51:50.770Z,17.77
2022-12-15T08:54:19.144Z,17.67
2022-12-15T08:56:48.865Z,18.60
2022-12-15T08:59:15.847Z,19.10
2022-12-15T09:01:43.561Z,17.97
2022-12-15T09:04:13.431Z,17.53
2022-12-15T09:06:40.218Z,17.93
2022-12-15T09:09:08.758Z,18.23
2022-12-15T09:11:35.658Z,18.60
2022-12-15T09:14:03.391Z,18.87
2022-12-15T09:16:32.873Z,18.87
2022-12-15T09:19:00.627Z,19.63
2022-12-15T09:21:29.314Z,21.30
2022-12-15T09:24:00.643Z,21.17
2022-12-15T09:26:29.746Z,20.20
2022-12-15T09:28:56.858Z,20.57
2022-12-15T09:31:29.784Z,21.60
2022-12-15T09:34:00.758Z,21.10
2022-12-15T09:36:33.001Z,22.30
2022-12-15T09:39:02.026Z,21.40
2022-12-15T09:41:34.608Z,19.50
2022-12-15T09:44:14.417Z,20.87
2022-12-15T09:47:12.089Z,20.90
2022-12-15T09:50:01.592Z,21.83
2022-12-15T09:52:31.216Z,20.67
2022-12-15T09:54:59.437Z,21.13
2022-12-15T09:57:36.298Z,20.10
2022-12-15T10:00:22.021Z,20.80
2022-12-15T10:03:02.400Z,19.93
2022-12-15T10:06:06.195Z,21.00
2022-12-15T10:08:30.396Z,19.77
2022-12-15T10:11:26.651Z,20.77
2022-12-15T10:14:24.104Z,20.60
2022-12-15T10:17:16.894Z,19.97
2022-12-15T10:19:55.355Z,19.83
2022-12-15T10:22:27.889Z,20.63
2022-12-15T10:25:11.507Z,19.67
2022-12-15T10:28:16.818Z,19.57
2022-12-15T10:31:00.233Z,19.93
2022-12-15T10:33:34.631Z,19.63
2022-12-15T10:36:02.095Z,20.13
2022-12-15T10:38:43.659Z,20.37
2022-12-15T10:41:16.910Z,19.93
2022-12-15T10:43:46.869Z,19.87
2022-12-15T10:46:20.715Z,19.43
2022-12-15T10:49:13.061Z,19.67
2022-12-15T10:51:55.734Z,20.30
2022-12-15T10:54:24.309Z,20.07
2022-12-15T10:57:00.929Z,20.87
2022-12-15T10:59:38.471Z,18.90
2022-12-15T11:02:25.368Z,20.43
2022-12-15T11:05:19.125Z,20.67
2022-12-15T11:07:46.156Z,20.93
2022-12-15T11:10:25.265Z,20.37
2022-12-15T11:13:13.576Z,20.10
2022-12-15T11:15:42.627Z,19.50
2022-12-15T11:18:43.865Z,19.63
2022-12-15T11:21:27.649Z,20.90
2022-12-15T11:24:32.901Z,19.50
2022-12-15T11:27:29.303Z,19.47
2022-12-15T11:30:11.897Z,19.83
2022-12-15T11:32:42.971Z,19.40
2022-12-15T11:35:14.852Z,18.70
2022-12-15T11:37:44.653Z,20.03
2022-12-15T11:40:26.415Z,19.83
2022-12-15T11:42:53.168Z,19.30
2022-12-15T11:45:34.986Z,19.43
2022-12-15T11:48:09.915Z,18.50
2022-12-15T11:51:13.623Z,20.53
2022-12-15T11:54:07.632Z,19.03
2022-12-15T11:56:45.383Z,18.67
2022-12-15T11:59:27.148Z,20.17
2022-12-15T12:02:27.732Z,19.77
2022-12-15T12:05:15.512Z,18.33
2022-12-15T12:08:04.017Z,18.80
2022-12-15T12:10:52.313Z,19.03
2022-12-15T12:14:02.594Z,18.30
2022-12-15T12:17:18.581Z,18.93
2022-12-15T12:19:51.247Z,17.73
2022-12-15T12:22:40.440Z,17.83
2022-12-15T12:25:13.813Z,17.27
2022-12-15T12:28:02.116Z,17.73
2022-12-15T12:30:43.342Z,19.17
2022-12-15T12:33:30.602Z,18.37
2022-12-15T12:36:07.200Z,17.40
2022-12-15T12:38:39.112Z,18.50
2022-12-15T12:41:36.386Z,16.67
2022-12-15T12:44:32.113Z,18.13
2022-12-15T12:47:07.319Z,17.43
2022-12-15T12:49:41.716Z,17.93
2022-12-15T12:52:43.234Z,18.30
2022-12-15T12:55:14.514Z,17.60
2022-12-15T12:57:43.249Z,18.57
2022-12-15T13:00:19.711Z,20.65
2022-12-15T13:02:48.456Z,17.40
2022-12-15T13:05:37.814Z,17.70
2022-12-15T13:08:10.874Z,17.00
2022-12-15T13:10:47.228Z,17.37
2022-12-15T13:13:32.564Z,17.27
2022-12-15T13:16:09.798Z,16.10
2022-12-15T13:19:04.309Z,16.37
2022-12-15T13:21:53.126Z,15.93
2022-12-15T13:24:33.920Z,16.00
2022-12-15T13:27:04.642Z,16.60
2022-12-15T13:29:35.606Z,16.50
2022-12-15T13:32:04.043Z,16.83
2022-12-15T13:34:38.977Z,17.27
2022-12-15T13:37:26.717Z,17.57
2022-12-15T13:39:57.046Z,18.63
2022-12-15T13:42:41.610Z,17.80
2022-12-15T13:45:24.547Z,17.80
2022-12-15T13:47:54.800Z,17.87
2022-12-15T13:50:36.313Z,18.93
2022-12-15T13:53:20.095Z,18.80
2022-12-15T13:56:42.309Z,18.73
2022-12-15T13:59:30.588Z,18.37
2022-12-15T14:01:57.833Z,17.57
2022-12-15T14:04:26.452Z,16.90
2022-12-15T14:07:00.816Z,18.50
2022-12-15T14:09:32.580Z,18.13
2022-12-15T14:12:01.269Z,19.13
2022-12-15T14:14:34.876Z,18.07
2022-12-15T14:17:06.063Z,17.70
2022-12-15T14:19:46.524Z,18.53
2022-12-15T14:22:28.673Z,17.40
2022-12-15T14:25:02.287Z,17.57
2022-12-15T14:27:31.318Z,18.80
2022-12-15T14:30:19.742Z,18.57
2022-12-15T14:32:54.503Z,17.03
2022-12-15T14:35:28.965Z,17.77
2022-12-15T14:37:59.128Z,17.93
2022-12-15T14:40:29.115Z,17.43
2022-12-15T14:42:56.397Z,17.30
2022-12-15T14:45:28.499Z,16.60
2022-12-15T14:48:39.537Z,17.00
2022-12-15T14:50:47.742Z,18.37
2022-12-15T14:53:17.552Z,18.87
2022-12-15T14:55:44.483Z,18.63
2022-12-15T14:58:34.825Z,19.17
2022-12-15T15:01:03.419Z,19.20
2022-12-15T15:03:39.831Z,19.67
2022-12-15T15:06:12.425Z,19.47
2022-12-15T15:08:46.447Z,19.13
2022-12-15T15:11:33.887Z,20.80
2022-12-15T15:14:05.815Z,20.57
2022-12-15T15:16:32.575Z,20.20
2022-12-15T15:19:02.467Z,20.53
2022-12-15T15:21:34.165Z,19.53
2022-12-15T15:24:02.132Z,20.23
2022-12-15T15:26:29.756Z,20.00
2022-12-15T15:28:56.933Z,21.53
2022-12-15T15:31:52.645Z,20.70
2022-12-15T15:34:19.482Z,21.80
2022-12-15T15:36:46.610Z,20.97
2022-12-15T15:39:15.741Z,20.83
2022-12-15T15:41:42.661Z,20.57
2022-12-15T15:44:14.687Z,21.80
2022-12-15T15:46:59.943Z,20.87
2022-12-15T15:49:27.360Z,21.37
2022-12-15T15:51:56.133Z,21.73
2022-12-15T15:54:25.119Z,22.30
2022-12-15T15:56:51.941Z,22.23
2022-12-15T15:59:21.156Z,21.97
2022-12-15T16:01:54.245Z,21.37
2022-12-15T16:04:21.711Z,22.83
2022-12-15T16:06:50.111Z,21.73
2022-12-15T16:09:17.144Z,21.87
2022-12-15T16:11:46.384Z,22.63
2022-12-15T16:14:15.717Z,23.20
2022-12-15T16:16:42.888Z,22.37
2022-12-15T16:19:11.999Z,23.37
2022-12-15T16:21:39.960Z,22.90
2022-12-15T16:24:13.683Z,22.83
2022-12-15T16:26:50.073Z,23.43
2022-12-15T16:29:20.238Z,22.47
2022-12-15T16:31:47.694Z,25.40
2022-12-15T16:34:20.499Z,24.23
2022-12-15T16:36:47.371Z,22.80
2022-12-15T16:39:26.151Z,24.70
2022-12-15T16:41:54.545Z,21.77
2022-12-15T16:44:22.278Z,23.53
2022-12-15T16:46:49.218Z,21.63
2022-12-15T16:49:19.372Z,22.77
2022-12-15T16:51:48.568Z,22.97
2022-12-15T16:54:27.242Z,22.50
2022-12-15T16:56:55.969Z,23.90
2022-12-15T16:59:34.965Z,22.83
2022-12-15T17:02:17.141Z,23.53
2022-12-15T17:04:43.957Z,22.77
2022-12-15T17:07:19.710Z,22.60
2022-12-15T17:09:47.507Z,22.77
2022-12-15T17:12:17.545Z,22.20
2022-12-15T17:14:45.015Z,23.43
2022-12-15T17:17:16.304Z,24.20
2022-12-15T17:19:58.009Z,24.20
2022-12-15T17:22:30.355Z,24.77
2022-12-15T17:24:57.132Z,25.80
2022-12-15T17:27:29.489Z,23.17
2022-12-15T17:29:59.567Z,24.77
2022-12-15T17:32:26.784Z,25.47
2022-12-15T17:34:53.472Z,26.17
2022-12-15T17:37:20.268Z,25.13
2022-12-15T17:39:51.376Z,25.03
2022-12-15T17:42:19.735Z,23.80
2022-12-15T17:44:47.793Z,24.07
2022-12-15T17:47:16.435Z,24.60
2022-12-15T17:49:43.780Z,24.67
2022-12-15T17:52:30.298Z,24.07
2022-12-15T17:54:59.633Z,24.03
2022-12-15T17:57:26.608Z,24.80
2022-12-15T18:00:01.136Z,25.10
2022-12-15T18:02:28.454Z,23.30
2022-12-15T18:04:55.366Z,24.20
2022-12-15T18:07:23.503Z,25.00
2022-12-15T18:09:51.982Z,24.67
2022-12-15T18:12:24.344Z,24.57
2022-12-15T18:14:52.002Z,26.27
2022-12-15T18:17:19.354Z,26.90
2022-12-15T18:19:46.619Z,25.97
2022-12-15T18:22:17.325Z,27.10
2022-12-15T18:24:44.161Z,27.33
2022-12-15T18:27:28.099Z,28.67
2022-12-15T18:29:56.557Z,28.03
2022-12-15T18:32:26.971Z,30.00
2022-12-15T18:34:55.113Z,29.63
2022-12-15T18:37:25.016Z,30.13
2022-12-15T18:39:52.231Z,30.20
2022-12-15T18:42:21.317Z,29.27
2022-12-15T18:44:50.619Z,31.90
2022-12-15T18:47:22.821Z,29.47
2022-12-15T18:49:49.797Z,31.03
2022-12-15T18:52:16.611Z,30.13
2022-12-15T18:54:43.738Z,30.23
2022-12-15T18:57:35.938Z,31.53
2022-12-15T19:00:15.062Z,29.90
2022-12-15T19:02:42.653Z,30.50
2022-12-15T19:05:27.667Z,28.60
2022-12-15T19:08:18.304Z,27.73
2022-12-15T19:10:52.641Z,28.30
2022-12-15T19:13:27.779Z,27.37
2022-12-15T19:15:54.759Z,27.73
2022-12-15T19:18:41.875Z,28.97
2022-12-15T19:21:44.560Z,27.87
2022-12-15T19:24:50.544Z,27.33
2022-12-15T19:27:20.867Z,26.83
2022-12-15T19:29:50.287Z,27.53
2022-12-15T19:32:17.089Z,26.37
2022-12-15T19:34:44.781Z,27.83
2022-12-15T19:37:19.105Z,27.10
2022-12-15T19:39:53.466Z,26.90
2022-12-15T19:42:24.431Z,25.67
2022-12-15T19:44:52.184Z,27.63
2022-12-15T19:47:19.095Z,26.50
2022-12-15T19:49:45.962Z,26.97
2022-12-15T19:52:17.366Z,26.43
2022-12-15T19:54:46.689Z,26.03
2022-12-15T19:57:18.573Z,25.70
2022-12-15T19:59:46.136Z,25.50
2022-12-15T20:02:20.876Z,26.07
2022-12-15T20:04:48.687Z,26.50
2022-12-15T20:07:30.751Z,24.93
2022-12-15T20:10:00.222Z,25.60
2022-12-15T20:12:27.384Z,26.07
2022-12-15T20:14:54.130Z,25.77
2022-12-15T20:17:20.814Z,24.53
2022-12-15T20:19:47.570Z,26.03
2022-12-15T20:22:16.994Z,24.80
2022-12-15T20:24:45.367Z,24.97
2022-12-15T20:27:17.184Z,25.43
2022-12-15T20:29:44.881Z,25.57
2022-12-15T20:32:17.432Z,24.97
2022-12-15T20:34:44.700Z,24.80
2022-12-15T20:37:18.435Z,26.23
2022-12-15T20:39:45.341Z,24.73
2022-12-15T20:42:15.207Z,25.43
2022-12-15T20:44:41.983Z,25.17
2022-12-15T20:47:20.616Z,25.67
2022-12-15T20:49:48.467Z,24.47
2022-12-15T20:52:24.822Z,23.60
2022-12-15T20:54:53.031Z,24.63
2022-12-15T20:57:20.330Z,24.20
2022-12-15T20:59:47.157Z,23.53
2022-12-15T21:02:23.812Z,25.73
2022-12-15T21:04:51.609Z,23.80
2022-12-15T21:07:18.843Z,24.77
2022-12-15T21:09:45.619Z,23.27
2022-12-15T21:12:20.881Z,23.43
2022-12-15T21:14:48.968Z,23.50
2022-12-15T21:17:17.568Z,23.50
2022-12-15T21:19:44.962Z,24.10
2022-12-15T21:22:28.342Z,23.80
2022-12-15T21:25:02.065Z,24.90
2022-12-15T21:27:29.020Z,24.30
2022-12-15T21:29:56.269Z,25.30
2022-12-15T21:32:22.986Z,24.60
2022-12-15T21:34:50.021Z,24.03
2022-12-15T21:37:30.172Z,25.03
2022-12-15T21:39:57.820Z,24.97
2022-12-15T21:42:25.532Z,25.23
2022-12-15T21:44:55.283Z,25.90
2022-12-15T21:47:23.954Z,25.30
2022-12-15T21:49:51.422Z,23.77
2022-12-15T21:52:20.307Z,24.67
2022-12-15T21:54:47.092Z,26.90
2022-12-15T21:57:13.949Z,25.47
2022-12-15T21:59:40.809Z,25.87
2022-12-15T22:02:26.935Z,25.73
2022-12-15T22:04:56.290Z,23.17
2022-12-15T22:07:23.042Z,23.67
2022-12-15T22:09:49.991Z,24.70
2022-12-15T22:12:22.407Z,24.10
2022-12-15T22:14:51.724Z,23.50
2022-12-15T22:17:22.606Z,24.90
2022-12-15T22:19:52.344Z,25.03
2022-12-15T22:22:19.210Z,24.73
2022-12-15T22:24:46.135Z,26.00
2022-12-15T22:27:21.751Z,25.17
2022-12-15T22:29:51.959Z,25.17
2022-12-15T22:32:18.689Z,26.30
2022-12-15T22:34:48.507Z,25.97
2022-12-15T22:37:16.947Z,26.67
2022-12-15T22:39:43.674Z,28.53
2022-12-15T22:42:18.162Z,28.20
2022-12-15T22:44:45.481Z,26.60
2022-12-15T22:47:12.346Z,26.67
2022-12-15T22:49:40.620Z,27.13
2022-12-15T22:52:19.027Z,26.67
2022-12-15T22:54:48.337Z,24.10
2022-12-15T22:57:23.022Z,27.23
2022-12-15T23:00:08.771Z,28.77
2022-12-15T23:02:39.588Z,27.53
2022-12-15T23:05:07.513Z,27.13
2022-12-15T23:07:38.150Z,28.13
2022-12-15T23:10:24.402Z,29.17
2022-12-15T23:12:54.381Z,26.07
2022-12-15T23:15:45.354Z,27.17
2022-12-15T23:18:12.318Z,26.67
2022-12-15T23:20:39.162Z,27.03
2022-12-15T23:23:06.389Z,26.33
2022-12-15T23:25:33.347Z,24.67
2022-12-15T23:28:00.133Z,25.30
2022-12-15T23:30:29.809Z,26.60
2022-12-15T23:32:56.545Z,26.93
2022-12-15T23:35:23.527Z,25.80
2022-12-15T23:37:50.988Z,26.53
2022-12-15T23:40:22.336Z,25.10
2022-12-15T23:42:59.663Z,25.73
2022-12-15T23:45:26.502Z,26.20
2022-12-15T23:47:53.330Z,23.77
2022-12-15T23:50:20.871Z,25.17
2022-12-15T23:52:51.302Z,25.03
2022-12-15T23:55:19.166Z,25.97
2022-12-15T23:57:46.437Z,27.03
